KLBL/LBL METAR and TAF weather

Enter ICAO airport designator
Station Type Date Time Source
KLBL METAR 2022/12/02 21:56 UTC NOAA

KLBL 022156Z AUTO 26008KT 8SM CLR 23/M03 A2977 RMK AO2 PK WND 25028/2058 SLP065 T02281033


Station Type Date Time Source
KLBL Decoded METAR 2022/12/02 21:56 UTC NOAA

Liberal, Liberal Municipal Airport, KS, United States (KLBL) 37-03N 100-58W
Dec 02, 2022 - 04:56 PM EST / 2022.12.02 2156 UTC
Wind: from the W (260 degrees) at 9 MPH (8 KT):0
Visibility: 8 mile(s):0
Sky conditions: clear
Temperature: 73.0 F (22.8 C)
Dew Point: 26.1 F (-3.3 C)
Relative Humidity: 17%
Pressure (altimeter): 29.77 in. Hg (1008 hPa)
ob: KLBL 022156Z AUTO 26008KT 8SM CLR 23/M03 A2977 RMK AO2 PK WND 25028/2058 SLP065 T02281033
cycle: 22

Station Type Date Time Source
KLBL TAF 2022/12/02 21:21 UTC NOAA

TAF
AMD KLBL 022118Z 0221/0318 25030G42KT P6SM FEW230
FM030000 35030G42KT 4SM BLDU SKC
FM030300 36017G26KT P6SM SKC
FM030500 31008KT P6SM SKC

Example: see airport list